sensor_id;sensor_type;location;lat;lon;timestamp;pressure;altitude;pressure_sealevel;temperature;humidity
62708;BME280;48769;51.624;5.886;2024-03-06T00:01:57;101551.59;;;5.95;100.00
62708;BME280;48769;51.624;5.886;2024-03-06T00:04:23;101553.34;;;5.95;100.00
62708;BME280;48769;51.624;5.886;2024-03-06T00:06:49;101555.13;;;5.93;100.00
62708;BME280;48769;51.624;5.886;2024-03-06T00:09:17;101556.88;;;5.91;100.00
62708;BME280;48769;51.624;5.886;2024-03-06T00:11:43;101562.19;;;5.88;100.00
62708;BME280;48769;51.624;5.886;2024-03-06T00:14:09;101557.91;;;5.83;100.00
62708;BME280;48769;51.624;5.886;2024-03-06T00:16:37;101571.06;;;5.80;100.00
62708;BME280;48769;51.624;5.886;2024-03-06T00:19:03;101568.44;;;5.80;100.00
62708;BME280;48769;51.624;5.886;2024-03-06T00:21:28;101568.50;;;5.79;100.00
62708;BME280;48769;51.624;5.886;2024-03-06T00:23:54;101572.03;;;5.76;100.00
62708;BME280;48769;51.624;5.886;2024-03-06T00:26:21;101569.47;;;5.73;100.00
62708;BME280;48769;51.624;5.886;2024-03-06T00:28:46;101574.78;;;5.70;100.00
62708;BME280;48769;51.624;5.886;2024-03-06T00:31:12;101581.78;;;5.68;100.00
62708;BME280;48769;51.624;5.886;2024-03-06T00:33:37;101581.84;;;5.65;100.00
62708;BME280;48769;51.624;5.886;2024-03-06T00:36:03;101580.13;;;5.64;100.00
62708;BME280;48769;51.624;5.886;2024-03-06T00:38:28;101582.81;;;5.61;100.00
62708;BME280;48769;51.624;5.886;2024-03-06T00:40:54;101587.22;;;5.59;100.00
62708;BME280;48769;51.624;5.886;2024-03-06T00:43:19;101583.75;;;5.57;100.00
62708;BME280;48769;51.624;5.886;2024-03-06T00:45:45;101582.03;;;5.56;100.00
62708;BME280;48769;51.624;5.886;2024-03-06T00:48:11;101587.34;;;5.53;100.00
62708;BME280;48769;51.624;5.886;2024-03-06T00:50:36;101584.78;;;5.50;100.00
62708;BME280;48769;51.624;5.886;2024-03-06T00:53:02;101583.03;;;5.50;100.00
62708;BME280;48769;51.624;5.886;2024-03-06T00:55:29;101590.91;;;5.49;100.00
62708;BME280;48769;51.624;5.886;2024-03-06T00:57:55;101590.13;;;5.44;100.00
62708;BME280;48769;51.624;5.886;2024-03-06T01:00:20;101596.19;;;5.46;100.00
62708;BME280;48769;51.624;5.886;2024-03-06T01:02:46;101592.63;;;5.50;100.00
62708;BME280;48769;51.624;5.886;2024-03-06T01:05:11;101597.78;;;5.56;100.00
62708;BME280;48769;51.624;5.886;2024-03-06T01:07:40;101594.19;;;5.60;100.00
62708;BME280;48769;51.624;5.886;2024-03-06T01:10:06;101595.84;;;5.64;100.00
62708;BME280;48769;51.624;5.886;2024-03-06T01:12:35;101593.28;;;5.61;100.00
62708;BME280;48769;51.624;5.886;2024-03-06T01:15:00;101606.41;;;5.61;100.00
62708;BME280;48769;51.624;5.886;2024-03-06T01:17:26;101603.81;;;5.58;100.00
62708;BME280;48769;51.624;5.886;2024-03-06T01:19:51;101598.53;;;5.61;100.00
62708;BME280;48769;51.624;5.886;2024-03-06T01:22:17;101606.41;;;5.61;100.00
62708;BME280;48769;51.624;5.886;2024-03-06T01:24:43;101611.69;;;5.58;100.00
62708;BME280;48769;51.624;5.886;2024-03-06T01:27:08;101614.41;;;5.53;100.00
62708;BME280;48769;51.624;5.886;2024-03-06T01:29:33;101610.09;;;5.51;100.00
62708;BME280;48769;51.624;5.886;2024-03-06T01:31:59;101612.81;;;5.46;100.00
62708;BME280;48769;51.624;5.886;2024-03-06T01:34:25;101608.41;;;5.47;100.00
62708;BME280;48769;51.624;5.886;2024-03-06T01:36:51;101613.66;;;5.47;100.00
62708;BME280;48769;51.624;5.886;2024-03-06T01:39:17;101620.66;;;5.46;100.00
62708;BME280;48769;51.624;5.886;2024-03-06T01:41:49;101618.91;;;5.47;100.00
62708;BME280;48769;51.624;5.886;2024-03-06T01:44:17;101621.53;;;5.45;100.00
62708;BME280;48769;51.624;5.886;2024-03-06T01:46:43;101622.38;;;5.46;100.00
62708;BME280;48769;51.624;5.886;2024-03-06T01:49:11;101627.69;;;5.43;100.00
62708;BME280;48769;51.624;5.886;2024-03-06T01:51:38;101631.34;;;5.32;100.00
62708;BME280;48769;51.624;5.886;2024-03-06T01:54:04;101627.97;;;5.27;100.00
62708;BME280;48769;51.624;5.886;2024-03-06T01:56:32;101632.31;;;5.30;100.00
62708;BME280;48769;51.624;5.886;2024-03-06T01:58:58;101632.22;;;5.34;100.00
62708;BME280;48769;51.624;5.886;2024-03-06T02:01:23;101633.09;;;5.33;100.00
62708;BME280;48769;51.624;5.886;2024-03-06T02:03:49;101640.16;;;5.28;100.00
62708;BME280;48769;51.624;5.886;2024-03-06T02:06:15;101643.63;;;5.30;100.00
62708;BME280;48769;51.624;5.886;2024-03-06T02:08:45;101638.44;;;5.27;100.00
62708;BME280;48769;51.624;5.886;2024-03-06T02:11:10;101640.97;;;5.33;100.00
62708;BME280;48769;51.624;5.886;2024-03-06T02:13:36;101640.97;;;5.33;100.00
62708;BME280;48769;51.624;5.886;2024-03-06T02:16:02;101652.38;;;5.29;100.00
62708;BME280;48769;51.624;5.886;2024-03-06T02:18:27;101648.03;;;5.30;100.00
62708;BME280;48769;51.624;5.886;2024-03-06T02:20:53;101641.09;;;5.26;100.00
62708;BME280;48769;51.624;5.886;2024-03-06T02:23:18;101647.31;;;5.20;100.00
62708;BME280;48769;51.624;5.886;2024-03-06T02:25:45;101644.66;;;5.22;100.00
62708;BME280;48769;51.624;5.886;2024-03-06T02:28:13;101649.97;;;5.15;100.00
62708;BME280;48769;51.624;5.886;2024-03-06T02:30:39;101652.72;;;5.08;100.00
62708;BME280;48769;51.624;5.886;2024-03-06T02:33:05;101656.22;;;5.07;100.00
62708;BME280;48769;51.624;5.886;2024-03-06T02:35:31;101657.94;;;5.11;100.00
62708;BME280;48769;51.624;5.886;2024-03-06T02:37:59;101658.78;;;5.11;100.00
62708;BME280;48769;51.624;5.886;2024-03-06T02:40:24;101655.31;;;5.09;100.00
62708;BME280;48769;51.624;5.886;2024-03-06T02:42:50;101659.84;;;5.00;100.00
62708;BME280;48769;51.624;5.886;2024-03-06T02:45:15;101658.16;;;4.96;100.00
62708;BME280;48769;51.624;5.886;2024-03-06T02:47:40;101657.38;;;4.87;100.00
62708;BME280;48769;51.624;5.886;2024-03-06T02:50:06;101646.94;;;4.86;100.00
62708;BME280;48769;51.624;5.886;2024-03-06T02:52:32;101647.81;;;4.86;100.00
62708;BME280;48769;51.624;5.886;2024-03-06T02:54:58;101652.19;;;4.86;100.00
62708;BME280;48769;51.624;5.886;2024-03-06T02:57:23;101652.22;;;4.83;100.00
62708;BME280;48769;51.624;5.886;2024-03-06T02:59:49;101655.75;;;4.80;100.00
62708;BME280;48769;51.624;5.886;2024-03-06T03:02:15;101652.31;;;4.77;100.00
62708;BME280;48769;51.624;5.886;2024-03-06T03:04:40;101648.03;;;4.71;100.00
62708;BME280;48769;51.624;5.886;2024-03-06T03:07:05;101652.47;;;4.66;100.00
62708;BME280;48769;51.624;5.886;2024-03-06T03:09:31;101649.06;;;4.62;100.00
62708;BME280;48769;51.624;5.886;2024-03-06T03:11:56;101648.22;;;4.57;100.00
62708;BME280;48769;51.624;5.886;2024-03-06T03:14:22;101655.22;;;4.57;100.00
62708;BME280;48769;51.624;5.886;2024-03-06T03:16:47;101653.53;;;4.51;100.00
62708;BME280;48769;51.624;5.886;2024-03-06T03:19:13;101653.59;;;4.50;100.00
62708;BME280;48769;51.624;5.886;2024-03-06T03:21:43;101660.56;;;4.48;100.00
62708;BME280;48769;51.624;5.886;2024-03-06T03:24:08;101657.13;;;4.45;100.00
62708;BME280;48769;51.624;5.886;2024-03-06T03:26:33;101657.16;;;4.42;100.00
62708;BME280;48769;51.624;5.886;2024-03-06T03:28:59;101663.25;;;4.41;100.00
62708;BME280;48769;51.624;5.886;2024-03-06T03:31:24;101661.59;;;4.39;100.00
62708;BME280;48769;51.624;5.886;2024-03-06T03:33:49;101664.25;;;4.34;100.00
62708;BME280;48769;51.624;5.886;2024-03-06T03:36:15;101666.06;;;4.29;100.00
62708;BME280;48769;51.624;5.886;2024-03-06T03:38:40;101662.59;;;4.26;100.00
62708;BME280;48769;51.624;5.886;2024-03-06T03:41:09;101667.84;;;4.24;100.00
62708;BME280;48769;51.624;5.886;2024-03-06T03:43:35;101675.69;;;4.24;100.00
62708;BME280;48769;51.624;5.886;2024-03-06T03:46:01;101672.25;;;4.20;100.00
62708;BME280;48769;51.624;5.886;2024-03-06T03:48:27;101676.63;;;4.20;100.00
62708;BME280;48769;51.624;5.886;2024-03-06T03:50:52;101673.97;;;4.23;100.00
62708;BME280;48769;51.624;5.886;2024-03-06T03:53:18;101680.00;;;4.28;100.00
62708;BME280;48769;51.624;5.886;2024-03-06T03:55:43;101677.38;;;4.30;100.00
62708;BME280;48769;51.624;5.886;2024-03-06T03:58:08;101679.97;;;4.31;100.00
62708;BME280;48769;51.624;5.886;2024-03-06T04:00:34;101672.13;;;4.33;100.00
62708;BME280;48769;51.624;5.886;2024-03-06T04:02:59;101678.22;;;4.33;100.00
62708;BME280;48769;51.624;5.886;2024-03-06T04:05:25;101672.13;;;4.33;100.00
62708;BME280;48769;51.624;5.886;2024-03-06T04:07:50;101686.06;;;4.33;100.00
62708;BME280;48769;51.624;5.886;2024-03-06T04:10:16;101677.34;;;4.31;100.00
62708;BME280;48769;51.624;5.886;2024-03-06T04:12:41;101688.66;;;4.33;100.00
62708;BME280;48769;51.624;5.886;2024-03-06T04:15:07;101694.72;;;4.35;100.00
62708;BME280;48769;51.624;5.886;2024-03-06T04:17:34;101697.31;;;4.40;100.00
62708;BME280;48769;51.624;5.886;2024-03-06T04:20:00;101692.97;;;4.39;100.00
62708;BME280;48769;51.624;5.886;2024-03-06T04:22:26;101686.88;;;4.35;100.00
62708;BME280;48769;51.624;5.886;2024-03-06T04:24:51;101686.06;;;4.33;100.00
62708;BME280;48769;51.624;5.886;2024-03-06T04:27:16;101688.66;;;4.32;100.00
62708;BME280;48769;51.624;5.886;2024-03-06T04:29:42;101692.19;;;4.32;100.00
62708;BME280;48769;51.624;5.886;2024-03-06T04:32:07;101696.53;;;4.32;100.00
62708;BME280;48769;51.624;5.886;2024-03-06T04:34:32;101688.72;;;4.30;100.00
62708;BME280;48769;51.624;5.886;2024-03-06T04:36:58;101697.41;;;4.32;100.00
62708;BME280;48769;51.624;5.886;2024-03-06T04:39:23;101696.59;;;4.27;100.00
62708;BME280;48769;51.624;5.886;2024-03-06T04:41:48;101701.81;;;4.27;100.00
62708;BME280;48769;51.624;5.886;2024-03-06T04:44:14;101701.03;;;4.19;100.00
62708;BME280;48769;51.624;5.886;2024-03-06T04:46:39;101706.34;;;4.13;100.00
62708;BME280;48769;51.624;5.886;2024-03-06T04:49:04;101706.25;;;4.19;100.00
62708;BME280;48769;51.624;5.886;2024-03-06T04:51:30;101713.25;;;4.20;100.00
62708;BME280;48769;51.624;5.886;2024-03-06T04:53:55;101721.97;;;4.16;100.00
62708;BME280;48769;51.624;5.886;2024-03-06T04:56:20;101722.84;;;4.18;100.00
62708;BME280;48769;51.624;5.886;2024-03-06T04:58:47;101732.53;;;4.10;100.00
62708;BME280;48769;51.624;5.886;2024-03-06T05:01:12;101739.53;;;4.05;100.00
62708;BME280;48769;51.624;5.886;2024-03-06T05:03:38;101744.78;;;4.05;100.00
62708;BME280;48769;51.624;5.886;2024-03-06T05:06:07;101737.91;;;3.94;100.00
62708;BME280;48769;51.624;5.886;2024-03-06T05:08:32;101745.88;;;3.84;100.00
62708;BME280;48769;51.624;5.886;2024-03-06T05:11:00;101752.88;;;3.79;100.00
62708;BME280;48769;51.624;5.886;2024-03-06T05:13:25;101751.19;;;3.70;100.00
62708;BME280;48769;51.624;5.886;2024-03-06T05:15:51;101758.22;;;3.63;100.00
62708;BME280;48769;51.624;5.886;2024-03-06T05:18:18;101752.97;;;3.66;100.00
62708;BME280;48769;51.624;5.886;2024-03-06T05:20:44;101760.75;;;3.74;100.00
62708;BME280;48769;51.624;5.886;2024-03-06T05:23:11;101765.91;;;3.80;100.00
62708;BME280;48769;51.624;5.886;2024-03-06T05:25:36;101765.03;;;3.80;100.00
62708;BME280;48769;51.624;5.886;2024-03-06T05:28:01;101762.47;;;3.78;100.00
62708;BME280;48769;51.624;5.886;2024-03-06T05:30:27;101768.50;;;3.80;100.00
62708;BME280;48769;51.624;5.886;2024-03-06T05:32:54;101775.56;;;3.72;100.00
62708;BME280;48769;51.624;5.886;2024-03-06T05:35:19;101778.13;;;3.77;100.00
62708;BME280;48769;51.624;5.886;2024-03-06T05:37:44;101784.22;;;3.79;100.00
62708;BME280;48769;51.624;5.886;2024-03-06T05:40:10;101784.19;;;3.80;100.00
62708;BME280;48769;51.624;5.886;2024-03-06T05:42:36;101785.09;;;3.79;100.00
62708;BME280;48769;51.624;5.886;2024-03-06T05:45:01;101782.53;;;3.74;100.00
62708;BME280;48769;51.624;5.886;2024-03-06T05:47:32;101785.97;;;3.77;100.00
62708;BME280;48769;51.624;5.886;2024-03-06T05:49:57;101793.84;;;3.75;100.00
62708;BME280;48769;51.624;5.886;2024-03-06T05:52:23;101785.09;;;3.76;100.00
62708;BME280;48769;51.624;5.886;2024-03-06T05:54:50;101786.88;;;3.77;100.00
62708;BME280;48769;51.624;5.886;2024-03-06T05:57:15;101789.47;;;3.75;100.00
62708;BME280;48769;51.624;5.886;2024-03-06T05:59:41;101803.44;;;3.70;100.00
62708;BME280;48769;51.624;5.886;2024-03-06T06:02:07;101800.00;;;3.63;100.00
62708;BME280;48769;51.624;5.886;2024-03-06T06:04:32;101808.78;;;3.61;100.00
62708;BME280;48769;51.624;5.886;2024-03-06T06:06:57;101806.16;;;3.61;100.00
62708;BME280;48769;51.624;5.886;2024-03-06T06:09:23;101807.88;;;3.62;100.00
62708;BME280;48769;51.624;5.886;2024-03-06T06:11:48;101814.00;;;3.58;100.00
62708;BME280;48769;51.624;5.886;2024-03-06T06:14:37;101814.88;;;3.54;100.00
62708;BME280;48769;51.624;5.886;2024-03-06T06:17:02;101817.50;;;3.55;100.00
62708;BME280;48769;51.624;5.886;2024-03-06T06:19:28;101821.00;;;3.53;100.00
62708;BME280;48769;51.624;5.886;2024-03-06T06:21:54;101829.72;;;3.55;100.00
62708;BME280;48769;51.624;5.886;2024-03-06T06:24:20;101835.78;;;3.57;100.00
62708;BME280;48769;51.624;5.886;2024-03-06T06:26:45;101843.59;;;3.61;100.00
62708;BME280;48769;51.624;5.886;2024-03-06T06:29:10;101844.41;;;3.68;100.00
62708;BME280;48769;51.624;5.886;2024-03-06T06:31:36;101844.41;;;3.69;100.00
62708;BME280;48769;51.624;5.886;2024-03-06T06:34:01;101844.38;;;3.74;100.00
62708;BME280;48769;51.624;5.886;2024-03-06T06:36:27;101847.81;;;3.79;100.00
62708;BME280;48769;51.624;5.886;2024-03-06T06:38:53;101854.75;;;3.83;100.00
62708;BME280;48769;51.624;5.886;2024-03-06T06:41:18;101862.59;;;3.85;100.00
62708;BME280;48769;51.624;5.886;2024-03-06T06:43:44;101866.09;;;3.84;100.00
62708;BME280;48769;51.624;5.886;2024-03-06T06:46:09;101869.56;;;3.83;100.00
62708;BME280;48769;51.624;5.886;2024-03-06T06:48:35;101873.03;;;3.85;100.00
62708;BME280;48769;51.624;5.886;2024-03-06T06:51:01;101873.03;;;3.83;100.00
62708;BME280;48769;51.624;5.886;2024-03-06T06:53:30;101880.88;;;3.86;100.00
62708;BME280;48769;51.624;5.886;2024-03-06T06:55:55;101881.69;;;3.93;100.00
62708;BME280;48769;51.624;5.886;2024-03-06T06:58:21;101886.09;;;3.86;100.00
62708;BME280;48769;51.624;5.886;2024-03-06T07:00:46;101893.09;;;3.84;100.00
62708;BME280;48769;51.624;5.886;2024-03-06T07:03:11;101893.09;;;3.84;100.00
62708;BME280;48769;51.624;5.886;2024-03-06T07:05:36;101897.41;;;3.91;100.00
62708;BME280;48769;51.624;5.886;2024-03-06T07:08:02;101900.91;;;3.87;100.00
62708;BME280;48769;51.624;5.886;2024-03-06T07:10:27;101904.38;;;3.91;100.00
62708;BME280;48769;51.624;5.886;2024-03-06T07:12:53;101909.56;;;3.95;100.00
62708;BME280;48769;51.624;5.886;2024-03-06T07:15:18;101909.53;;;3.98;100.00
62708;BME280;48769;51.624;5.886;2024-03-06T07:17:44;101907.78;;;4.01;100.00
62708;BME280;48769;51.624;5.886;2024-03-06T07:20:09;101911.19;;;4.09;100.00
62708;BME280;48769;51.624;5.886;2024-03-06T07:22:35;101912.84;;;4.19;100.00
62708;BME280;48769;51.624;5.886;2024-03-06T07:25:01;101927.69;;;4.20;100.00
62708;BME280;48769;51.624;5.886;2024-03-06T07:27:30;101921.59;;;4.18;100.00
62708;BME280;48769;51.624;5.886;2024-03-06T07:29:56;101933.00;;;4.11;100.00
62708;BME280;48769;51.624;5.886;2024-03-06T07:32:21;101932.97;;;4.12;100.00
62708;BME280;48769;51.624;5.886;2024-03-06T07:34:46;101932.16;;;4.04;100.00
62708;BME280;48769;51.624;5.886;2024-03-06T07:37:12;101932.94;;;4.20;100.00
62708;BME280;48769;51.624;5.886;2024-03-06T07:39:37;101934.63;;;4.24;100.00
62708;BME280;48769;51.624;5.886;2024-03-06T07:42:04;101939.91;;;4.19;100.00
62708;BME280;48769;51.624;5.886;2024-03-06T07:44:29;101948.66;;;4.14;100.00
62708;BME280;48769;51.624;5.886;2024-03-06T07:46:54;101946.00;;;4.20;100.00
62708;BME280;48769;51.624;5.886;2024-03-06T07:49:20;101952.91;;;4.30;100.00
62708;BME280;48769;51.624;5.886;2024-03-06T07:51:47;101951.91;;;4.43;100.00
62708;BME280;48769;51.624;5.886;2024-03-06T07:54:12;101944.81;;;4.55;100.00
62708;BME280;48769;51.624;5.886;2024-03-06T07:56:38;101943.81;;;4.69;100.00
62708;BME280;48769;51.624;5.886;2024-03-06T07:59:03;101959.44;;;4.79;100.00
62708;BME280;48769;51.624;5.886;2024-03-06T08:01:30;101954.03;;;4.96;100.00
62708;BME280;48769;51.624;5.886;2024-03-06T08:03:56;101954.88;;;5.01;100.00
62708;BME280;48769;51.624;5.886;2024-03-06T08:06:21;101968.69;;;5.12;100.00
62708;BME280;48769;51.624;5.886;2024-03-06T08:08:47;101970.31;;;5.25;100.00
62708;BME280;48769;51.624;5.886;2024-03-06T08:11:13;101974.56;;;5.32;100.00
62708;BME280;48769;51.624;5.886;2024-03-06T08:13:38;101972.88;;;5.30;100.00
62708;BME280;48769;51.624;5.886;2024-03-06T08:16:07;101974.47;;;5.42;100.00
62708;BME280;48769;51.624;5.886;2024-03-06T08:18:35;101979.53;;;5.55;100.00
62708;BME280;48769;51.624;5.886;2024-03-06T08:21:02;101982.03;;;5.66;100.00
62708;BME280;48769;51.624;5.886;2024-03-06T08:23:29;101985.50;;;5.68;100.00
62708;BME280;48769;51.624;5.886;2024-03-06T08:25:55;101988.97;;;5.70;100.00
62708;BME280;48769;51.624;5.886;2024-03-06T08:28:21;101986.16;;;5.85;100.00
62708;BME280;48769;51.624;5.886;2024-03-06T08:30:46;101987.09;;;5.78;100.00
62708;BME280;48769;51.624;5.886;2024-03-06T08:33:12;101989.59;;;5.88;100.00
62708;BME280;48769;51.624;5.886;2024-03-06T08:35:37;101992.19;;;5.91;100.00
62708;BME280;48769;51.624;5.886;2024-03-06T08:38:03;101992.19;;;5.94;100.00
62708;BME280;48769;51.624;5.886;2024-03-06T08:40:29;102002.69;;;5.94;100.00
62708;BME280;48769;51.624;5.886;2024-03-06T08:42:54;102002.72;;;5.88;100.00
62708;BME280;48769;51.624;5.886;2024-03-06T08:45:20;102007.94;;;5.91;100.00
62708;BME280;48769;51.624;5.886;2024-03-06T08:47:46;102010.28;;;6.12;100.00
62708;BME280;48769;51.624;5.886;2024-03-06T08:50:13;102014.53;;;6.22;100.00
62708;BME280;48769;51.624;5.886;2024-03-06T08:52:39;102016.38;;;6.14;100.00
62708;BME280;48769;51.624;5.886;2024-03-06T08:55:04;102021.47;;;6.25;100.00
62708;BME280;48769;51.624;5.886;2024-03-06T08:57:31;102021.22;;;6.42;100.00
62708;BME280;48769;51.624;5.886;2024-03-06T08:59:57;102028.06;;;6.53;100.00
62708;BME280;48769;51.624;5.886;2024-03-06T09:02:23;102031.22;;;6.72;100.00
62708;BME280;48769;51.624;5.886;2024-03-06T09:04:49;102033.53;;;6.92;100.00
62708;BME280;48769;51.624;5.886;2024-03-06T09:07:17;102033.41;;;7.00;100.00
62708;BME280;48769;51.624;5.886;2024-03-06T09:09:42;102034.25;;;7.02;100.00
62708;BME280;48769;51.624;5.886;2024-03-06T09:12:08;102044.44;;;7.19;100.00
62708;BME280;48769;51.624;5.886;2024-03-06T09:14:36;102031.84;;;7.38;100.00
62708;BME280;48769;51.624;5.886;2024-03-06T09:17:01;102036.72;;;7.56;100.00
62708;BME280;48769;51.624;5.886;2024-03-06T09:19:28;102044.47;;;7.64;100.00
62708;BME280;48769;51.624;5.886;2024-03-06T09:21:53;102047.09;;;7.64;100.00
62708;BME280;48769;51.624;5.886;2024-03-06T09:24:23;102041.81;;;7.65;100.00
62708;BME280;48769;51.624;5.886;2024-03-06T09:26:50;102045.09;;;7.75;100.00
62708;BME280;48769;51.624;5.886;2024-03-06T09:29:16;102045.97;;;8.17;100.00
62708;BME280;48769;51.624;5.886;2024-03-06T09:31:42;102055.31;;;8.31;100.00
62708;BME280;48769;51.624;5.886;2024-03-06T09:34:08;102058.72;;;8.34;100.00
62708;BME280;48769;51.624;5.886;2024-03-06T09:36:37;102062.09;;;8.42;100.00
62708;BME280;48769;51.624;5.886;2024-03-06T09:39:03;102065.41;;;8.51;100.00
62708;BME280;48769;51.624;5.886;2024-03-06T09:41:31;102070.69;;;8.51;100.00
62708;BME280;48769;51.624;5.886;2024-03-06T09:43:57;102061.44;;;8.70;100.00
62708;BME280;48769;51.624;5.886;2024-03-06T09:46:22;102067.31;;;9.16;100.00
62708;BME280;48769;51.624;5.886;2024-03-06T09:48:49;102068.81;;;9.58;100.00
62708;BME280;48769;51.624;5.886;2024-03-06T09:51:14;102071.88;;;10.05;100.00
62708;BME280;48769;51.624;5.886;2024-03-06T09:53:41;102076.78;;;9.88;100.00
62708;BME280;48769;51.624;5.886;2024-03-06T09:56:08;102081.69;;;10.00;100.00
62708;BME280;48769;51.624;5.886;2024-03-06T09:58:35;102085.66;;;10.15;100.00
62708;BME280;48769;51.624;5.886;2024-03-06T10:01:01;102087.84;;;10.01;100.00
62708;BME280;48769;51.624;5.886;2024-03-06T10:03:33;102086.00;;;10.04;100.00
62708;BME280;48769;51.624;5.886;2024-03-06T10:06:02;102086.00;;;10.34;100.00
62708;BME280;48769;51.624;5.886;2024-03-06T10:08:27;102091.91;;;10.97;100.00
62708;BME280;48769;51.624;5.886;2024-03-06T10:10:53;102083.72;;;10.78;100.00
62708;BME280;48769;51.624;5.886;2024-03-06T10:13:23;102092.28;;;10.86;100.00
62708;BME280;48769;51.624;5.886;2024-03-06T10:15:59;102095.75;;;11.40;100.00
62708;BME280;48769;51.624;5.886;2024-03-06T10:18:27;102093.44;;;12.04;100.00
62708;BME280;48769;51.624;5.886;2024-03-06T10:20:53;102088.81;;;12.33;100.00
62708;BME280;48769;51.624;5.886;2024-03-06T10:23:19;102096.03;;;12.29;100.00
62708;BME280;48769;51.624;5.886;2024-03-06T10:25:45;102094.50;;;12.46;100.00
62708;BME280;48769;51.624;5.886;2024-03-06T10:28:11;102097.47;;;12.60;100.00
62708;BME280;48769;51.624;5.886;2024-03-06T10:30:41;102090.31;;;12.62;100.00
62708;BME280;48769;51.624;5.886;2024-03-06T10:33:12;102095.75;;;12.59;100.00
62708;BME280;48769;51.624;5.886;2024-03-06T10:35:40;102089.59;;;12.80;100.00
62708;BME280;48769;51.624;5.886;2024-03-06T10:38:06;102092.38;;;13.61;100.00
62708;BME280;48769;51.624;5.886;2024-03-06T10:40:34;102085.22;;;14.40;100.00
62708;BME280;48769;51.624;5.886;2024-03-06T10:43:15;102077.66;;;13.93;100.00
62708;BME280;48769;51.624;5.886;2024-03-06T10:45:47;102091.94;;;13.30;100.00
62708;BME280;48769;51.624;5.886;2024-03-06T10:48:21;102089.50;;;13.04;100.00
62708;BME280;48769;51.624;5.886;2024-03-06T10:50:49;102087.31;;;12.71;100.00
62708;BME280;48769;51.624;5.886;2024-03-06T10:53:18;102086.78;;;12.39;100.00
62708;BME280;48769;51.624;5.886;2024-03-06T10:55:44;102099.66;;;12.27;100.00
62708;BME280;48769;51.624;5.886;2024-03-06T10:58:10;102095.28;;;12.26;100.00
62708;BME280;48769;51.624;5.886;2024-03-06T11:00:40;102089.63;;;12.57;100.00
62708;BME280;48769;51.624;5.886;2024-03-06T11:03:07;102089.72;;;12.77;100.00
62708;BME280;48769;51.624;5.886;2024-03-06T11:05:37;102094.91;;;13.01;100.00
62708;BME280;48769;51.624;5.886;2024-03-06T11:08:15;102087.13;;;13.98;100.00
62708;BME280;48769;51.624;5.886;2024-03-06T11:10:42;102080.09;;;14.54;100.00
62708;BME280;48769;51.624;5.886;2024-03-06T11:15:42;102079.53;;;14.66;100.00
62708;BME280;48769;51.624;5.886;2024-03-06T11:21:00;102081.75;;;14.93;100.00
62708;BME280;48769;51.624;5.886;2024-03-06T11:27:05;102086.88;;;14.23;100.00
62708;BME280;48769;51.624;5.886;2024-03-06T11:30:04;102090.59;;;14.19;100.00
62708;BME280;48769;51.624;5.886;2024-03-06T11:32:57;102090.00;;;14.32;100.00
62708;BME280;48769;51.624;5.886;2024-03-06T11:35:23;102091.47;;;14.58;100.00
62708;BME280;48769;51.624;5.886;2024-03-06T11:37:53;102088.41;;;14.65;100.00
62708;BME280;48769;51.624;5.886;2024-03-06T11:40:24;102094.97;;;14.20;100.00
62708;BME280;48769;51.624;5.886;2024-03-06T11:42:50;102090.78;;;13.96;100.00
62708;BME280;48769;51.624;5.886;2024-03-06T11:45:17;102092.94;;;13.88;100.00
62708;BME280;48769;51.624;5.886;2024-03-06T11:48:01;102083.69;;;13.96;100.00
62708;BME280;48769;51.624;5.886;2024-03-06T11:50:27;102084.69;;;14.32;100.00
62708;BME280;48769;51.624;5.886;2024-03-06T11:52:53;102083.03;;;14.10;100.00
62708;BME280;48769;51.624;5.886;2024-03-06T11:55:21;102086.13;;;14.01;100.00
62708;BME280;48769;51.624;5.886;2024-03-06T11:57:46;102089.53;;;14.23;100.00
62708;BME280;48769;51.624;5.886;2024-03-06T12:00:13;102092.16;;;14.61;100.00
62708;BME280;48769;51.624;5.886;2024-03-06T12:02:38;102078.25;;;14.56;100.00
62708;BME280;48769;51.624;5.886;2024-03-06T12:05:04;102082.47;;;13.85;100.00
62708;BME280;48769;51.624;5.886;2024-03-06T12:07:30;102084.53;;;13.78;100.00
62708;BME280;48769;51.624;5.886;2024-03-06T12:09:57;102087.28;;;14.52;100.00
62708;BME280;48769;51.624;5.886;2024-03-06T12:12:24;102077.66;;;14.31;100.00
62708;BME280;48769;51.624;5.886;2024-03-06T12:14:59;102083.28;;;14.80;100.00
62708;BME280;48769;51.624;5.886;2024-03-06T12:17:29;102077.16;;;15.82;100.00
62708;BME280;48769;51.624;5.886;2024-03-06T12:19:55;102064.94;;;16.89;100.00
62708;BME280;48769;51.624;5.886;2024-03-06T12:22:24;102062.72;;;17.98;100.00
62708;BME280;48769;51.624;5.886;2024-03-06T12:24:58;102064.00;;;18.76;97.72
62708;BME280;48769;51.624;5.886;2024-03-06T12:27:23;102053.94;;;18.79;90.84
62708;BME280;48769;51.624;5.886;2024-03-06T12:29:52;102061.72;;;18.55;90.61
62708;BME280;48769;51.624;5.886;2024-03-06T12:32:18;102056.75;;;18.36;90.12
62708;BME280;48769;51.624;5.886;2024-03-06T12:34:43;102061.78;;;17.85;89.10
62708;BME280;48769;51.624;5.886;2024-03-06T12:37:09;102058.72;;;17.48;88.91
62708;BME280;48769;51.624;5.886;2024-03-06T12:39:37;102059.44;;;17.36;89.88
62708;BME280;48769;51.624;5.886;2024-03-06T12:42:03;102056.38;;;17.28;87.22
62708;BME280;48769;51.624;5.886;2024-03-06T12:44:28;102054.81;;;17.10;87.53
62708;BME280;48769;51.624;5.886;2024-03-06T12:46:53;102056.59;;;17.53;89.15
62708;BME280;48769;51.624;5.886;2024-03-06T12:49:19;102063.06;;;18.62;86.91
62708;BME280;48769;51.624;5.886;2024-03-06T12:51:47;102050.81;;;19.25;79.69
62708;BME280;48769;51.624;5.886;2024-03-06T12:54:13;102045.69;;;19.48;69.75